Aérodrome :
LOGIN :

S'inscrire | Disclaimer

   EN    FR    IT 

 










Légende :    VFR   VFR Marginal   IFR   IFR Intensif   IFR Très Intensif
Visi : 
Plafond : 
>= 8 km
>= 3000ft
5 à 8 km
1000 à 3000 ft
1500m à 5 km
500 à 1000 ft
800 à 1500m
200 à 500 ft
< 800m
< 200 ft
Symboles :   Orages  Brouillard  Fortes neiges  Fortes précipitations  Vent > 20 kt
SIGMETs :   Divers  Orages  Givrage  Turbulence  Onde Orograph.  Cendres Volcan.







- Altitude de l'aérodrome : 375 ft
- Code IATA : MST


EHBK - Maastricht Aachen

DERNIER METAR :
  • 280255Z AUTO 22017KT 9999 FEW032 BKN043 OVC047 05/01 Q0990

METARs EXPIRÉS :
  • 280225Z AUTO 22015KT 9999 SCT032 BKN037 OVC041 05/01 Q0990
  • 280155Z AUTO 23015KT 9999 FEW032 OVC046 05/00 Q0991
  • 280125Z AUTO 23014KT 200V270 9999 FEW015CB SCT032 BKN038 05/01 Q0991
  • 280055Z AUTO 22018KT 190V270 9999 FEW017CB BKN031 OVC036 06/02 Q0990
  • 280025Z AUTO 20015KT 170V230 9999 FEW027 06/02 Q0990

TAF TAF EHBK
Valide du 28 à 00h jusqu'au 01 à 06h UTC


272318Z 2800/0106 22015G25KT 9999 BKN035
PROB30
TEMPO 2800/2804 4000 SHRA FEW020CB
BECMG 2812/2815 25010KT
TEMPO 2812/2819 4000 SHRAGS SCT020CB
TEMPO 2822/0106 22016G28KT 6000 -RA BKN012
PROB30
TEMPO 2822/0106 3500 RA RADZ BKN008
BECMG 0103/0106 25015G27KT
Pas de NOTAMs connus pour ce terrain.



MET'MAP, la Météo Aéronautique d'un coup d'oeil ! - Copyright ORBIFLY Décembre 2007 - Disclaimer

ORBIFLY MET'MAP TEAM :

Programmation & Développement : Alexandra Zaïnal
Conception & Développement : Baudouin d'Aumeries
Co-Programmation & Développement : Marc-Olivier Méhu
Soutien technique & logistique : Manuel Goepfert

Contact : metmap@orbifly.com




SOURCES & CREDITS :

   NOAA